Time;durP1;ratioP1;P1;durP2;ratioP2;P2;SDS_P1;SDS_P2;PMS_P1;PMS_P2;Temp;Humidity;BMP_temperature;BMP_pressure;BME280_temperature;BME280_humidity;BME280_pressure;Samples;Min_cycle;Max_cycle;Signal;HPM_P1;HPM_P2
2022/08/21 00:00:45;;;;;;;8.30;6.57;;;22.10;91.00;;;;;;6114450;23;20422;-82
2022/08/21 00:03:12;;;;;;;8.37;6.23;;;22.10;91.10;;;;;;6119716;23;20450;-84
2022/08/21 00:05:43;;;;;;;7.97;6.30;;;22.10;91.20;;;;;;6116656;23;20519;-83
2022/08/21 00:08:11;;;;;;;7.00;6.30;;;22.10;91.10;;;;;;6113894;23;20399;-84
2022/08/21 00:10:40;;;;;;;10.23;8.30;;;22.10;91.00;;;;;;6141198;23;20403;-85
2022/08/21 00:13:07;;;;;;;11.83;7.53;;;22.10;90.90;;;;;;6143279;23;20408;-87
2022/08/21 00:15:36;;;;;;;14.60;8.07;;;22.10;90.90;;;;;;6141649;23;20460;-82
2022/08/21 00:18:04;;;;;;;9.47;6.93;;;21.90;91.20;;;;;;6117745;23;20439;-80
2022/08/21 00:20:31;;;;;;;7.73;7.03;;;21.90;91.30;;;;;;6117964;23;20407;-82
2022/08/21 00:22:58;;;;;;;9.30;7.90;;;22.00;91.50;;;;;;6147911;23;20468;-85
2022/08/21 00:25:25;;;;;;;7.70;6.90;;;22.00;91.40;;;;;;6121805;23;20443;-83
2022/08/21 00:27:53;;;;;;;11.07;7.90;;;22.00;91.10;;;;;;6122056;23;20423;-84
2022/08/21 00:30:22;;;;;;;13.50;9.10;;;22.00;91.40;;;;;;6127164;23;20412;-85
2022/08/21 00:32:54;;;;;;;8.80;8.00;;;22.00;92.10;;;;;;6127565;23;20420;-83
2022/08/21 00:35:28;;;;;;;11.20;8.27;;;22.00;92.10;;;;;;6121335;23;20447;-83
2022/08/21 00:37:56;;;;;;;8.13;7.33;;;21.90;92.60;;;;;;6109222;23;20423;-83
2022/08/21 00:40:32;;;;;;;10.40;8.43;;;21.80;92.40;;;;;;6107945;23;20412;-82
2022/08/21 00:43:01;;;;;;;11.20;8.17;;;21.80;92.60;;;;;;6132836;23;20948;-84
2022/08/21 00:45:29;;;;;;;12.50;8.60;;;21.70;92.90;;;;;;6105928;23;20440;-84
2022/08/21 00:47:56;;;;;;;9.47;8.20;;;21.70;93.30;;;;;;6132445;23;20607;-84
2022/08/21 00:50:29;;;;;;;9.47;8.57;;;21.80;94.20;;;;;;6132986;23;20522;-84
2022/08/21 00:52:58;;;;;;;9.60;8.70;;;21.60;94.80;;;;;;6107348;23;20422;-83
2022/08/21 00:55:26;;;;;;;12.37;8.80;;;21.50;95.10;;;;;;6106682;23;20506;-85
2022/08/21 00:57:56;;;;;;;8.03;7.23;;;21.30;94.70;;;;;;6106705;23;20415;-84
2022/08/21 01:00:32;;;;;;;10.23;8.37;;;21.30;94.30;;;;;;6106417;23;20744;-85
2022/08/21 01:03:05;;;;;;;8.87;7.30;;;21.30;94.00;;;;;;6106018;23;20490;-84
2022/08/21 01:05:33;;;;;;;10.07;7.77;;;21.10;94.20;;;;;;6132241;23;20439;-83
2022/08/21 01:08:00;;;;;;;9.73;6.53;;;21.10;94.30;;;;;;6130963;23;20442;-85
2022/08/21 01:10:27;;;;;;;9.13;7.60;;;21.10;94.10;;;;;;6106800;23;20416;-82
2022/08/21 01:12:56;;;;;;;7.50;6.30;;;21.20;93.90;;;;;;6132396;23;20418;-82
2022/08/21 01:15:30;;;;;;;7.13;6.07;;;21.20;93.80;;;;;;6133002;23;20507;-84
2022/08/21 01:17:57;;;;;;;7.53;6.80;;;21.10;93.80;;;;;;6107170;23;20415;-83
2022/08/21 01:20:25;;;;;;;8.10;7.27;;;21.10;93.90;;;;;;6108653;23;20423;-84
2022/08/21 01:22:57;;;;;;;8.07;6.40;;;21.00;94.00;;;;;;6108032;23;20931;-84
2022/08/21 01:25:25;;;;;;;7.83;6.70;;;21.00;93.90;;;;;;6132261;23;20819;-84
2022/08/21 01:27:52;;;;;;;7.87;7.00;;;21.10;94.00;;;;;;6133037;23;20408;-85
2022/08/21 01:30:25;;;;;;;8.60;6.63;;;21.10;93.90;;;;;;6110744;23;20466;-83
2022/08/21 01:32:54;;;;;;;7.20;6.47;;;21.00;93.90;;;;;;6110145;23;20618;-82
2022/08/21 01:35:22;;;;;;;7.07;6.00;;;20.80;94.20;;;;;;6113232;23;20456;-85
2022/08/21 01:37:49;;;;;;;6.87;5.97;;;20.80;94.30;;;;;;6139104;23;20479;-85
2022/08/21 01:40:18;;;;;;;8.67;6.77;;;20.70;94.60;;;;;;6117205;23;20904;-86
2022/08/21 01:42:46;;;;;;;9.10;6.33;;;20.80;94.50;;;;;;6116263;23;20412;-83
2022/08/21 01:45:15;;;;;;;8.90;6.90;;;20.80;94.50;;;;;;6119577;23;20478;-83
2022/08/21 01:47:44;;;;;;;8.23;6.80;;;20.90;94.50;;;;;;6116499;23;20407;-84
2022/08/21 01:50:15;;;;;;;8.57;7.30;;;20.80;94.90;;;;;;6141551;23;20416;-85
2022/08/21 01:52:42;;;;;;;9.40;6.40;;;20.80;95.20;;;;;;6143904;23;20479;-85
2022/08/21 01:55:11;;;;;;;9.70;7.10;;;20.70;95.40;;;;;;6117928;23;20518;-83
2022/08/21 01:57:38;;;;;;;7.83;6.63;;;20.80;95.20;;;;;;6143078;23;20396;-83
2022/08/21 02:00:08;;;;;;;7.47;6.77;;;20.80;94.90;;;;;;6144804;23;20872;-82
2022/08/21 02:02:36;;;;;;;10.17;6.33;;;20.80;94.80;;;;;;6112640;23;20400;-80
2022/08/21 02:05:04;;;;;;;8.23;6.97;;;20.80;94.90;;;;;;6138151;23;20518;-80
2022/08/21 02:07:57;;;;;;;8.07;6.50;;;20.60;94.90;;;;;;6139940;23;20487;-81
2022/08/21 02:10:27;;;;;;;9.53;6.70;;;20.50;95.20;;;;;;6113854;23;20423;-81
2022/08/21 02:12:56;;;;;;;9.80;6.90;;;20.60;95.00;;;;;;6141515;23;20931;-82
2022/08/21 02:15:23;;;;;;;10.20;7.37;;;20.60;94.70;;;;;;6114464;23;20478;-82
2022/08/21 02:17:54;;;;;;;7.67;6.90;;;20.50;94.70;;;;;;6150044;23;20408;-86
2022/08/21 02:20:36;;;;;;;10.70;7.90;;;20.40;94.90;;;;;;6126531;23;20442;-86
2022/08/21 02:23:05;;;;;;;8.20;7.40;;;20.30;94.90;;;;;;6139581;23;20459;-82
2022/08/21 02:25:34;;;;;;;8.80;7.90;;;20.30;95.10;;;;;;6111959;23;20443;-83
2022/08/21 02:28:13;;;;;;;8.37;7.40;;;20.30;95.20;;;;;;6140355;23;20462;-81
2022/08/21 02:30:45;;;;;;;11.17;9.20;;;20.30;95.50;;;;;;6114310;23;20471;-80
2022/08/21 02:33:13;;;;;;;11.10;10.00;;;20.30;96.30;;;;;;6118481;23;20420;-83
2022/08/21 02:35:41;;;;;;;11.67;10.50;;;20.30;97.20;;;;;;6140365;23;20459;-79
2022/08/21 02:38:11;;;;;;;12.23;11.13;;;20.00;97.60;;;;;;6142603;23;20400;-80
2022/08/21 02:40:41;;;;;;;13.70;11.27;;;19.80;98.20;;;;;;6146764;23;20422;-84
2022/08/21 02:43:09;;;;;;;11.47;10.20;;;19.60;98.80;;;;;;6147648;23;20419;-84
2022/08/21 02:45:37;;;;;;;15.57;11.57;;;19.50;99.10;;;;;;6147379;23;20468;-82
2022/08/21 02:48:08;;;;;;;12.37;11.00;;;19.40;99.50;;;;;;6146455;23;20419;-80
2022/08/21 02:50:50;;;;;;;11.53;10.33;;;19.30;99.80;;;;;;6140784;23;20462;-82
2022/08/21 02:53:19;;;;;;;13.00;10.80;;;19.20;99.90;;;;;;6116950;23;20415;-82
2022/08/21 02:55:49;;;;;;;12.40;11.20;;;19.30;99.90;;;;;;6122280;23;20447;-82
2022/08/21 02:58:22;;;;;;;12.13;10.93;;;19.30;99.90;;;;;;6122805;23;20442;-84
2022/08/21 03:00:50;;;;;;;14.87;11.47;;;19.30;99.90;;;;;;6122446;23;20443;-81
2022/08/21 03:03:20;;;;;;;13.53;12.17;;;19.30;99.90;;;;;;6120471;23;20408;-81
2022/08/21 03:05:48;;;;;;;14.03;12.53;;;19.40;99.90;;;;;;6120013;23;20435;-83
2022/08/21 03:08:16;;;;;;;15.80;12.90;;;19.30;99.50;;;;;;6120046;23;20419;-82
2022/08/21 03:10:47;;;;;;;13.60;11.27;;;19.20;99.50;;;;;;6119220;23;20407;-82
2022/08/21 03:13:15;;;;;;;12.83;11.10;;;19.20;99.40;;;;;;6146141;23;20500;-83
2022/08/21 03:15:43;;;;;;;11.13;9.63;;;19.20;99.50;;;;;;6142007;23;20475;-80
2022/08/21 03:18:11;;;;;;;13.37;10.00;;;19.00;99.60;;;;;;6112771;23;20943;-82
2022/08/21 03:20:41;;;;;;;10.03;9.13;;;19.20;99.80;;;;;;6136076;23;20428;-82
2022/08/21 03:23:09;;;;;;;9.70;8.80;;;19.10;99.70;;;;;;6137224;23;20486;-83
2022/08/21 03:25:38;;;;;;;11.63;8.63;;;19.00;99.60;;;;;;6136626;23;20435;-83
2022/08/21 03:28:09;;;;;;;8.70;7.90;;;19.00;99.80;;;;;;6109291;23;20905;-84
2022/08/21 03:30:40;;;;;;;8.87;7.93;;;19.10;99.80;;;;;;6111370;23;20422;-84
2022/08/21 03:33:07;;;;;;;8.23;7.27;;;19.00;99.70;;;;;;6109554;23;20494;-83
2022/08/21 03:35:34;;;;;;;8.63;7.80;;;19.00;99.90;;;;;;6110437;23;20507;-83
2022/08/21 03:38:01;;;;;;;8.50;7.23;;;19.00;99.80;;;;;;6107563;23;20715;-82
2022/08/21 03:40:29;;;;;;;9.10;7.60;;;18.90;99.90;;;;;;6107039;23;20438;-84
2022/08/21 03:42:55;;;;;;;12.30;7.47;;;19.00;99.60;;;;;;6134001;23;20415;-81
2022/08/21 03:45:23;;;;;;;9.03;6.33;;;19.00;99.30;;;;;;6133041;23;20779;-83
2022/08/21 03:48:02;;;;;;;7.90;6.90;;;19.00;99.30;;;;;;6107202;23;20416;-83
2022/08/21 03:50:32;;;;;;;9.53;6.40;;;18.90;99.30;;;;;;6132831;23;20443;-84
2022/08/21 03:53:00;;;;;;;7.60;6.90;;;19.00;99.10;;;;;;6133372;23;20930;-84
2022/08/21 03:55:27;;;;;;;12.33;6.93;;;18.90;99.10;;;;;;6141102;23;20523;-84
2022/08/21 03:57:54;;;;;;;8.07;6.77;;;18.90;99.20;;;;;;6118495;23;20476;-83
2022/08/21 04:00:22;;;;;;;9.00;5.67;;;18.90;99.20;;;;;;6142961;23;20459;-81
2022/08/21 04:02:49;;;;;;;8.60;6.60;;;19.00;98.60;;;;;;6117306;23;20429;-83
2022/08/21 04:05:26;;;;;;;7.27;6.53;;;18.90;98.30;;;;;;6116700;23;20948;-84
2022/08/21 04:07:58;;;;;;;8.87;6.53;;;18.90;97.90;;;;;;6112979;23;20404;-83
2022/08/21 04:10:27;;;;;;;9.50;6.97;;;18.70;97.90;;;;;;6134431;23;20484;-83
2022/08/21 04:12:55;;;;;;;8.20;6.23;;;18.60;98.10;;;;;;6131362;23;20506;-82
2022/08/21 04:15:23;;;;;;;7.33;6.63;;;18.60;98.40;;;;;;6130700;23;20444;-83
2022/08/21 04:17:50;;;;;;;7.33;6.50;;;18.50;98.10;;;;;;6131007;23;20880;-82
2022/08/21 04:20:19;;;;;;;11.70;7.73;;;18.50;98.30;;;;;;6112797;23;20411;-85
2022/08/21 04:22:46;;;;;;;8.90;7.60;;;18.50;98.40;;;;;;6108630;23;20419;-81
2022/08/21 04:25:15;;;;;;;7.80;7.10;;;18.30;98.50;;;;;;6111717;23;20424;-87
2022/08/21 04:27:42;;;;;;;8.90;6.53;;;18.30;98.70;;;;;;6112578;23;20411;-84
2022/08/21 04:30:10;;;;;;;6.83;5.90;;;18.40;99.10;;;;;;6131931;23;20415;-85
2022/08/21 04:32:37;;;;;;;9.33;6.50;;;18.30;99.40;;;;;;6131596;23;20418;-83
2022/08/21 04:35:08;;;;;;;8.30;6.07;;;18.30;99.80;;;;;;6130931;23;21010;-84
2022/08/21 04:37:36;;;;;;;6.67;5.93;;;18.40;99.80;;;;;;6129608;23;20466;-82
2022/08/21 04:40:09;;;;;;;7.37;6.63;;;18.40;99.90;;;;;;6130326;23;20495;-81
2022/08/21 04:42:44;;;;;;;7.87;5.70;;;18.40;99.90;;;;;;6104757;23;20423;-84
2022/08/21 04:45:25;;;;;;;6.90;6.20;;;18.40;99.90;;;;;;6103421;23;20431;-84
2022/08/21 04:47:55;;;;;;;6.67;5.93;;;18.40;99.60;;;;;;6129928;23;20422;-85
2022/08/21 04:50:35;;;;;;;8.50;6.80;;;18.50;99.50;;;;;;6129563;23;20408;-82
2022/08/21 04:53:03;;;;;;;7.40;6.23;;;18.40;99.20;;;;;;6104531;23;20395;-82
2022/08/21 04:55:30;;;;;;;9.77;6.07;;;18.30;99.30;;;;;;6130083;23;20472;-84
2022/08/21 04:57:57;;;;;;;8.50;6.40;;;18.30;99.30;;;;;;6130573;23;20411;-83
2022/08/21 05:00:24;;;;;;;7.00;6.30;;;18.40;99.20;;;;;;6132146;23;20399;-82
2022/08/21 05:02:56;;;;;;;6.73;6.13;;;18.50;99.10;;;;;;6105554;23;20396;-82
2022/08/21 05:05:23;;;;;;;7.00;6.30;;;18.50;98.80;;;;;;6105833;23;20432;-81
2022/08/21 05:07:52;;;;;;;8.10;7.30;;;18.50;98.60;;;;;;6107489;23;20414;-83
2022/08/21 05:10:20;;;;;;;9.40;6.53;;;18.50;98.50;;;;;;6151579;23;20455;-87
2022/08/21 05:12:47;;;;;;;6.37;5.80;;;18.50;98.50;;;;;;6103274;23;20406;-83
2022/08/21 05:15:14;;;;;;;7.23;6.30;;;18.50;98.50;;;;;;6152265;23;20479;-83
2022/08/21 05:17:41;;;;;;;8.30;6.70;;;18.50;98.50;;;;;;6126571;23;20395;-83
2022/08/21 05:20:09;;;;;;;7.03;6.43;;;18.60;98.40;;;;;;6152668;23;20407;-87
2022/08/21 05:22:37;;;;;;;7.47;6.77;;;18.50;98.40;;;;;;6152725;23;20404;-83
2022/08/21 05:25:05;;;;;;;10.73;7.20;;;18.40;98.40;;;;;;6151926;23;20486;-84
2022/08/21 05:27:36;;;;;;;10.90;6.70;;;18.40;98.60;;;;;;6146883;23;21164;-81
2022/08/21 05:30:05;;;;;;;7.10;6.50;;;18.20;98.70;;;;;;6130434;23;20415;-81
2022/08/21 05:32:31;;;;;;;8.93;7.80;;;18.20;98.70;;;;;;6128883;23;20422;-81
2022/08/21 05:34:58;;;;;;;7.47;6.73;;;18.20;98.70;;;;;;6127549;23;20721;-81
2022/08/21 05:37:25;;;;;;;10.33;7.50;;;18.20;98.70;;;;;;6128176;23;20416;-82
2022/08/21 05:39:51;;;;;;;8.80;7.80;;;18.20;98.90;;;;;;6102728;23;20466;-82
2022/08/21 05:42:31;;;;;;;10.47;7.27;;;18.30;98.80;;;;;;6129010;23;20860;-82
2022/08/21 05:44:57;;;;;;;8.97;7.27;;;18.30;98.80;;;;;;6128850;23;20439;-80
2022/08/21 05:47:24;;;;;;;7.33;6.13;;;18.40;98.60;;;;;;6102590;23;20416;-81
2022/08/21 05:49:51;;;;;;;7.40;6.70;;;18.50;98.00;;;;;;6130435;23;20419;-82
2022/08/21 05:52:21;;;;;;;8.97;6.93;;;18.40;98.20;;;;;;6130748;23;20418;-82
2022/08/21 05:54:48;;;;;;;7.83;7.10;;;18.60;97.80;;;;;;6129816;23;20816;-83
2022/08/21 05:57:14;;;;;;;9.60;6.67;;;18.60;97.60;;;;;;6104067;23;20414;-81
2022/08/21 05:59:41;;;;;;;9.67;7.20;;;18.50;97.60;;;;;;6130618;23;20408;-82
2022/08/21 06:02:08;;;;;;;9.43;6.53;;;18.50;97.70;;;;;;6105026;23;20404;-82
2022/08/21 06:04:39;;;;;;;8.70;6.23;;;18.50;97.80;;;;;;6136566;23;20406;-85
2022/08/21 06:07:06;;;;;;;7.73;6.93;;;18.60;97.70;;;;;;6143201;23;20416;-81
2022/08/21 06:09:33;;;;;;;6.73;6.07;;;18.90;97.60;;;;;;6128321;23;20408;-82
2022/08/21 06:12:05;;;;;;;8.23;6.23;;;20.30;96.80;;;;;;6129073;23;20412;-81
2022/08/21 06:14:32;;;;;;;7.63;6.40;;;23.20;91.60;;;;;;6105210;23;20392;-84
2022/08/21 06:17:07;;;;;;;6.50;5.87;;;25.30;83.50;;;;;;6129522;23;20466;-82
2022/08/21 06:19:35;;;;;;;8.73;6.20;;;26.80;75.60;;;;;;6106218;23;20510;-83
2022/08/21 06:22:02;;;;;;;6.70;6.10;;;27.90;70.30;;;;;;6133442;23;20740;-84
2022/08/21 06:24:29;;;;;;;7.23;5.80;;;28.60;65.90;;;;;;6105663;23;20411;-82
2022/08/21 06:26:57;;;;;;;9.80;5.90;;;28.90;63.50;;;;;;6130650;23;20425;-85
2022/08/21 06:29:24;;;;;;;8.80;7.10;;;29.60;61.50;;;;;;6130770;23;20396;-82
2022/08/21 06:31:51;;;;;;;7.00;6.40;;;29.80;59.90;;;;;;6129184;23;20423;-83
2022/08/21 06:34:18;;;;;;;6.23;5.63;;;30.20;59.20;;;;;;6133146;23;20404;-83
2022/08/21 06:36:45;;;;;;;6.53;5.90;;;30.80;57.20;;;;;;6137665;23;20439;-84
2022/08/21 06:39:13;;;;;;;7.10;6.07;;;31.10;55.90;;;;;;6137657;23;20408;-83
2022/08/21 06:41:42;;;;;;;7.40;6.37;;;31.20;55.60;;;;;;6105383;23;20424;-85
2022/08/21 06:44:09;;;;;;;9.30;6.23;;;30.80;55.10;;;;;;6104053;23;20414;-83
2022/08/21 06:46:35;;;;;;;7.27;5.67;;;30.70;55.50;;;;;;6103303;23;20428;-84
2022/08/21 06:49:02;;;;;;;7.50;6.20;;;30.30;55.60;;;;;;6131231;23;20534;-82
2022/08/21 06:51:29;;;;;;;7.73;6.00;;;28.40;57.50;;;;;;6130839;23;20416;-82
2022/08/21 06:53:56;;;;;;;13.13;6.43;;;26.30;61.90;;;;;;6132017;23;20731;-82
2022/08/21 06:56:24;;;;;;;6.87;5.57;;;24.70;68.00;;;;;;6104475;23;20479;-82
2022/08/21 06:58:51;;;;;;;6.90;4.83;;;24.90;71.20;;;;;;6131073;23;20415;-83
2022/08/21 07:01:23;;;;;;;6.00;4.40;;;26.50;68.70;;;;;;6131014;23;20423;-84
2022/08/21 07:03:50;;;;;;;6.77;6.07;;;28.50;60.30;;;;;;6131374;23;20431;-83
2022/08/21 07:06:16;;;;;;;6.07;5.50;;;30.80;56.80;;;;;;6131108;23;20431;-84
2022/08/21 07:08:43;;;;;;;6.27;5.67;;;32.70;52.90;;;;;;6132288;23;20838;-84
2022/08/21 07:11:18;;;;;;;7.63;5.43;;;33.30;51.10;;;;;;6087526;23;20420;-84
2022/08/21 07:13:45;;;;;;;5.27;3.90;;;33.90;49.50;;;;;;6131155;23;20398;-83
2022/08/21 07:16:12;;;;;;;4.60;3.27;;;34.10;47.60;;;;;;6103986;23;20474;-85
2022/08/21 07:18:39;;;;;;;6.67;4.07;;;35.00;44.70;;;;;;6104452;23;20747;-83
2022/08/21 07:21:07;;;;;;;4.70;4.20;;;35.10;43.70;;;;;;6129524;23;20411;-82
2022/08/21 07:23:39;;;;;;;5.60;4.20;;;34.80;44.60;;;;;;6143087;23;20499;-85
2022/08/21 07:26:06;;;;;;;4.97;3.40;;;35.30;43.70;;;;;;6105024;23;20550;-84
2022/08/21 07:28:33;;;;;;;6.20;4.80;;;36.40;42.00;;;;;;6132429;23;20511;-84
2022/08/21 07:31:01;;;;;;;5.90;4.30;;;36.10;41.20;;;;;;6131385;23;20443;-86
2022/08/21 07:33:31;;;;;;;5.30;3.93;;;35.30;42.30;;;;;;6104104;23;20408;-82
2022/08/21 07:35:58;;;;;;;3.30;2.87;;;35.10;43.00;;;;;;6130962;23;20451;-83
2022/08/21 07:38:25;;;;;;;3.93;2.63;;;35.30;42.40;;;;;;6130164;23;20408;-83
2022/08/21 07:40:55;;;;;;;5.17;2.30;;;34.80;41.70;;;;;;6130500;23;20411;-84
2022/08/21 07:43:22;;;;;;;3.87;2.47;;;35.60;39.60;;;;;;6104706;23;20907;-85
2022/08/21 07:45:51;;;;;;;3.33;2.00;;;34.80;39.60;;;;;;6135202;23;20534;-81
2022/08/21 07:48:18;;;;;;;3.30;2.07;;;34.40;40.00;;;;;;6132079;23;20408;-84
2022/08/21 07:50:45;;;;;;;2.70;2.50;;;33.60;40.70;;;;;;6129802;23;20422;-84
2022/08/21 07:53:11;;;;;;;3.17;1.80;;;32.90;42.10;;;;;;6130112;23;20753;-83
2022/08/21 07:55:38;;;;;;;4.00;1.63;;;33.80;41.60;;;;;;6130634;23;20448;-84
2022/08/21 07:58:06;;;;;;;3.83;1.93;;;35.40;39.00;;;;;;6133206;23;20419;-82
2022/08/21 08:00:34;;;;;;;4.07;1.70;;;34.10;39.70;;;;;;6104477;23;20411;-83
2022/08/21 08:03:02;;;;;;;2.83;1.60;;;33.80;40.40;;;;;;6130437;23;20789;-83
2022/08/21 08:05:30;;;;;;;3.40;2.00;;;33.20;41.30;;;;;;6104062;23;20783;-84
2022/08/21 08:07:58;;;;;;;2.90;1.60;;;33.40;41.60;;;;;;6130192;23;20755;-83
2022/08/21 08:10:26;;;;;;;3.10;1.77;;;33.50;40.80;;;;;;6134774;23;20726;-83
2022/08/21 08:12:54;;;;;;;2.17;1.70;;;33.40;40.70;;;;;;6104828;23;20426;-83
2022/08/21 08:15:24;;;;;;;2.93;1.60;;;32.90;41.00;;;;;;6105001;23;20569;-84
2022/08/21 08:17:51;;;;;;;2.50;1.30;;;34.10;40.40;;;;;;6103959;23;20408;-83
2022/08/21 08:20:19;;;;;;;2.23;1.33;;;36.20;37.50;;;;;;6130087;23;20412;-83
2022/08/21 08:22:46;;;;;;;3.20;1.43;;;36.30;36.30;;;;;;6104822;23;20440;-85
2022/08/21 08:25:15;;;;;;;2.83;1.50;;;36.20;36.30;;;;;;6129903;23;20431;-84
2022/08/21 08:27:41;;;;;;;5.40;2.00;;;36.30;36.20;;;;;;6130404;23;20462;-84
2022/08/21 08:30:12;;;;;;;3.30;1.50;;;35.70;36.10;;;;;;6129891;23;20403;-83
2022/08/21 08:32:39;;;;;;;4.93;1.90;;;34.60;38.00;;;;;;6130584;23;20408;-84
2022/08/21 08:35:07;;;;;;;3.77;1.40;;;35.50;36.80;;;;;;6103783;23;20431;-82
2022/08/21 08:37:34;;;;;;;2.80;1.87;;;36.80;35.10;;;;;;6129424;23;20479;-88
2022/08/21 08:40:01;;;;;;;2.80;1.77;;;37.10;34.30;;;;;;6130012;23;20411;-86
2022/08/21 08:42:35;;;;;;;3.43;1.53;;;36.80;34.20;;;;;;6104700;23;20426;-84
2022/08/21 08:45:16;;;;;;;3.47;1.53;;;37.50;33.50;;;;;;6129652;23;20424;-83
2022/08/21 08:47:55;;;;;;;2.30;1.30;;;37.20;33.50;;;;;;6104237;23;20876;-85
2022/08/21 08:50:27;;;;;;;2.67;1.30;;;35.40;35.20;;;;;;6104536;23;20396;-83
2022/08/21 08:53:01;;;;;;;3.70;2.17;;;34.60;36.30;;;;;;6129809;23;20419;-84
2022/08/21 08:55:38;;;;;;;3.00;1.60;;;34.10;37.10;;;;;;6130366;23;20438;-82
2022/08/21 08:58:05;;;;;;;3.80;1.90;;;34.80;36.10;;;;;;6105461;23;20481;-82
2022/08/21 09:00:33;;;;;;;2.43;1.57;;;34.20;36.70;;;;;;6108751;23;20403;-85
2022/08/21 09:03:02;;;;;;;3.83;1.83;;;33.80;36.90;;;;;;6133576;23;20461;-85
2022/08/21 09:05:42;;;;;;;2.57;1.70;;;34.00;37.00;;;;;;6105583;23;20428;-84
2022/08/21 09:08:20;;;;;;;2.10;1.30;;;34.40;36.80;;;;;;6105218;23;20474;-83
2022/08/21 09:11:06;;;;;;;3.23;1.47;;;34.40;36.70;;;;;;6106077;23;20763;-83
2022/08/21 09:13:32;;;;;;;3.37;1.63;;;33.60;37.00;;;;;;6123892;23;20401;-83
2022/08/21 09:16:19;;;;;;;3.20;1.67;;;33.60;37.60;;;;;;6102549;23;20985;-82
2022/08/21 09:19:17;;;;;;;5.40;2.20;;;34.20;36.90;;;;;;6127801;23;20912;-83
2022/08/21 09:21:58;;;;;;;2.03;1.30;;;34.20;36.50;;;;;;6130666;23;20403;-83
2022/08/21 09:27:44;;;;;;;2.10;1.50;;;32.90;38.20;;;;;;6124196;23;20526;-82
2022/08/21 09:30:35;;;;;;;2.00;1.67;;;32.90;38.20;;;;;;5998966;23;20182;-83
2022/08/21 09:33:15;;;;;;;2.47;1.10;;;35.50;36.00;;;;;;6015556;23;20403;-82
2022/08/21 09:36:02;;;;;;;3.43;1.83;;;36.40;33.80;;;;;;5992900;23;20442;-83
2022/08/21 09:38:45;;;;;;;3.93;1.63;;;36.60;33.60;;;;;;6017284;23;20474;-82
2022/08/21 09:41:37;;;;;;;3.23;1.40;;;35.20;34.50;;;;;;6001391;23;20469;-82
2022/08/21 09:44:24;;;;;;;3.43;1.50;;;34.00;36.00;;;;;;6012327;23;20470;-84
2022/08/21 09:46:55;;;;;;;4.00;1.87;;;34.00;36.50;;;;;;6011546;23;20490;-86
2022/08/21 09:49:34;;;;;;;3.93;1.40;;;33.30;36.60;;;;;;6037157;23;20451;-86
2022/08/21 09:52:30;;;;;;;1.80;1.23;;;32.10;39.00;;;;;;6036652;23;20475;-86
2022/08/21 09:57:37;;;;;;;3.37;1.50;;;32.00;39.40;;;;;;6100061;23;20432;-88
2022/08/21 09:58:11;;;;;;;4.20;1.27;;;32.40;39.30;;;;;;6123721;23;20436;-85
2022/08/21 10:00:39;;;;;;;3.03;1.70;;;32.80;38.70;;;;;;6098228;23;20403;-88
2022/08/21 10:03:29;;;;;;;2.33;1.50;;;32.90;38.20;;;;;;6122003;23;20392;-88
2022/08/21 10:06:27;;;;;;;4.97;1.70;;;33.20;38.00;;;;;;6109571;23;20927;-83
2022/08/21 10:09:18;;;;;;;1.47;1.20;;;33.50;37.60;;;;;;6081905;23;20412;-82
2022/08/21 10:12:12;;;;;;;3.77;1.47;;;32.90;37.90;;;;;;6062703;23;20423;-83
2022/08/21 10:15:20;;;;;;;3.60;1.60;;;32.90;38.00;;;;;;6081695;23;20499;-85
2022/08/21 10:18:07;;;;;;;3.00;1.40;;;33.80;37.00;;;;;;6080972;23;20491;-82
2022/08/21 10:21:23;;;;;;;3.60;1.80;;;32.60;38.30;;;;;;6103948;23;20416;-83
2022/08/21 10:24:33;;;;;;;2.83;1.60;;;32.20;38.70;;;;;;6065342;23;20431;-85
2022/08/21 10:27:23;;;;;;;2.70;1.73;;;32.10;39.60;;;;;;6105804;23;20427;-85
2022/08/21 10:30:25;;;;;;;2.80;1.60;;;33.40;38.40;;;;;;6108875;23;20451;-85
2022/08/21 10:33:24;;;;;;;2.73;1.50;;;34.50;36.10;;;;;;6105709;23;20448;-83
2022/08/21 10:36:20;;;;;;;3.37;1.90;;;33.10;37.40;;;;;;6082159;23;20443;-84
2022/08/21 10:39:01;;;;;;;2.27;2.00;;;32.70;38.20;;;;;;6079208;23;20411;-83
2022/08/21 10:42:25;;;;;;;2.77;1.50;;;32.60;38.20;;;;;;6084457;23;20478;-84
2022/08/21 10:48:15;;;;;;;2.50;1.33;;;32.20;39.20;;;;;;6111097;23;20467;-83
2022/08/21 10:51:03;;;;;;;2.77;1.60;;;31.90;39.00;;;;;;6107348;23;20516;-85
2022/08/21 10:53:54;;;;;;;3.20;1.67;;;31.70;39.20;;;;;;6106672;23;20444;-84
2022/08/21 10:56:54;;;;;;;5.57;1.83;;;32.00;39.50;;;;;;6100949;23;20441;-84
2022/08/21 10:59:48;;;;;;;5.50;1.70;;;32.50;38.80;;;;;;6105274;23;20883;-83
2022/08/21 11:02:27;;;;;;;3.60;1.53;;;31.90;38.80;;;;;;6103179;23;20542;-84
2022/08/21 11:05:09;;;;;;;3.13;1.33;;;31.80;39.00;;;;;;6103758;23;20948;-84
2022/08/21 11:07:55;;;;;;;4.70;1.70;;;31.60;39.40;;;;;;6104357;23;20427;-84
2022/08/21 11:10:39;;;;;;;3.50;1.40;;;31.50;39.70;;;;;;6080826;23;20492;-84
2022/08/21 11:13:41;;;;;;;2.60;1.47;;;31.50;40.20;;;;;;6103032;23;20421;-84
2022/08/21 11:16:33;;;;;;;2.77;1.20;;;31.30;40.20;;;;;;6079959;23;20440;-84
2022/08/21 11:19:26;;;;;;;2.30;1.20;;;31.10;40.40;;;;;;6103136;23;20496;-83
2022/08/21 11:22:19;;;;;;;2.27;1.10;;;31.70;39.90;;;;;;6083149;23;20405;-84
2022/08/21 11:24:55;;;;;;;5.23;1.43;;;31.90;39.00;;;;;;6081777;23;20464;-85
2022/08/21 11:27:40;;;;;;;5.03;1.40;;;31.80;39.40;;;;;;6104253;23;20511;-82
2022/08/21 11:30:17;;;;;;;1.60;1.13;;;31.60;39.50;;;;;;6081035;23;20432;-84
2022/08/21 11:33:36;;;;;;;3.90;1.50;;;31.80;38.80;;;;;;6106487;23;20727;-85
2022/08/21 11:36:43;;;;;;;2.77;1.40;;;31.90;38.40;;;;;;6078322;23;20444;-85
2022/08/21 11:39:52;;;;;;;2.17;1.13;;;32.60;37.70;;;;;;6068612;23;20416;-83
2022/08/21 11:42:35;;;;;;;2.40;1.40;;;32.40;37.70;;;;;;6080325;23;20440;-84
2022/08/21 11:45:35;;;;;;;1.60;1.13;;;33.10;36.90;;;;;;6081480;23;20469;-83
2022/08/21 11:48:46;;;;;;;2.30;1.20;;;33.10;36.50;;;;;;6105531;23;20420;-83
2022/08/21 11:52:13;;;;;;;1.73;1.33;;;33.80;35.60;;;;;;6103976;23;20420;-85
2022/08/21 11:55:18;;;;;;;4.50;1.70;;;33.40;36.60;;;;;;6081236;23;20433;-86
2022/08/21 11:58:18;;;;;;;3.60;1.27;;;32.90;37.50;;;;;;6102023;23;20459;-83
2022/08/21 12:01:22;;;;;;;2.23;1.53;;;32.50;37.60;;;;;;6103935;23;20400;-83
2022/08/21 12:04:18;;;;;;;3.37;1.27;;;32.20;38.80;;;;;;6102209;23;20425;-83
2022/08/21 12:07:05;;;;;;;3.13;1.20;;;32.30;38.20;;;;;;6080032;23;20412;-83
2022/08/21 12:10:07;;;;;;;2.97;1.47;;;32.40;38.10;;;;;;6073033;23;20408;-84
2022/08/21 12:12:51;;;;;;;1.73;1.30;;;32.40;37.90;;;;;;6092316;23;20416;-89
2022/08/21 12:15:45;;;;;;;2.83;1.30;;;32.50;38.50;;;;;;6089864;23;20432;-90
2022/08/21 12:18:38;;;;;;;2.83;2.03;;;33.30;36.80;;;;;;6096744;23;20546;-84
2022/08/21 12:21:36;;;;;;;2.37;1.30;;;33.00;37.40;;;;;;6109855;23;20424;-83
2022/08/21 12:24:41;;;;;;;3.10;1.70;;;32.90;37.30;;;;;;6106825;23;20432;-84
2022/08/21 12:27:33;;;;;;;1.70;1.20;;;32.50;37.50;;;;;;6113549;23;20424;-84
2022/08/21 12:30:33;;;;;;;2.70;1.50;;;32.30;38.10;;;;;;6089307;23;20397;-87
2022/08/21 12:33:30;;;;;;;1.97;1.10;;;32.40;37.90;;;;;;6119526;23;20500;-85
2022/08/21 12:36:21;;;;;;;5.70;1.50;;;32.80;37.00;;;;;;6099427;23;20493;-88
2022/08/21 12:39:13;;;;;;;2.70;1.23;;;32.50;37.40;;;;;;6100100;23;20492;-84
2022/08/21 12:42:42;;;;;;;;;;;;;;;;;;;;;
2022/08/21 12:46:18;;;;;;;2.23;1.20;;;33.30;36.90;;;;;;6118667;23;20467;-84
2022/08/21 12:49:04;;;;;;;3.13;1.33;;;33.10;36.20;;;;;;6083764;23;20413;-83
2022/08/21 12:52:23;;;;;;;3.63;1.87;;;32.50;37.20;;;;;;6105878;23;20463;-82
2022/08/21 12:55:13;;;;;;;2.70;1.83;;;32.30;37.50;;;;;;6084735;23;20751;-82
2022/08/21 12:57:42;;;;;;;4.10;1.37;;;32.50;37.70;;;;;;6105902;23;20488;-83
2022/08/21 13:00:14;;;;;;;5.37;1.37;;;33.70;36.40;;;;;;6105766;23;20408;-83
2022/08/21 13:03:13;;;;;;;2.03;1.40;;;33.50;36.50;;;;;;6105442;23;20894;-83
2022/08/21 13:05:56;;;;;;;1.57;1.10;;;33.40;36.40;;;;;;6062878;23;20425;-83
2022/08/21 13:08:38;;;;;;;5.00;1.17;;;32.90;36.40;;;;;;6102864;23;20420;-83
2022/08/21 13:11:15;;;;;;;2.27;1.33;;;32.50;37.10;;;;;;6103461;23;20440;-82
2022/08/21 13:13:59;;;;;;;2.20;1.40;;;32.30;37.40;;;;;;6082366;23;20443;-82
2022/08/21 13:16:31;;;;;;;4.17;2.10;;;32.00;37.80;;;;;;6102500;23;20433;-83
2022/08/21 13:19:11;;;;;;;2.27;1.63;;;31.90;38.10;;;;;;6104318;23;20415;-84
2022/08/21 13:21:45;;;;;;;3.60;1.70;;;31.80;38.60;;;;;;6105763;23;20444;-85
2022/08/21 13:24:23;;;;;;;3.97;1.77;;;31.90;38.40;;;;;;6106070;23;20408;-82
2022/08/21 13:27:25;;;;;;;1.63;1.23;;;31.80;38.40;;;;;;6105976;23;20421;-83
2022/08/21 13:30:23;;;;;;;2.23;1.43;;;32.30;38.20;;;;;;6105595;23;20428;-84
2022/08/21 13:32:57;;;;;;;2.17;1.77;;;32.20;38.00;;;;;;6073376;23;20420;-84
2022/08/21 13:35:49;;;;;;;2.67;1.20;;;32.10;37.90;;;;;;6089152;23;20432;-89